Time,TemperatureF,DewpointF,PressureIn,WindDirection,WindDirectionDegrees,WindSpeedMPH,WindSpeedGustMPH,Humidity,HourlyPrecipIn,Conditions,Clouds,dailyrainin,SoftwareType,DateUTC
2013-05-22 00:00:00,75.3,69.4,24.02,West,270,0.0,7.0,82,0.00,,,0.00,VWS V13.01,2013-05-22 04:00:00,
2013-05-22 01:00:00,74.0,69.2,24.02,WNW,292,0.0,4.0,85,0.00,,,0.00,VWS V13.01,2013-05-22 05:00:00,
2013-05-22 02:00:00,72.7,68.9,24.02,WNW,292,0.0,1.0,88,0.00,,,0.00,VWS V13.01,2013-05-22 06:00:00,
2013-05-22 03:00:00,71.6,68.5,24.02,WNW,292,0.0,4.0,90,0.00,,,0.00,VWS V13.01,2013-05-22 07:00:00,
2013-05-22 04:00:00,70.7,67.9,24.02,WNW,292,0.0,0.0,91,0.00,,,0.00,VWS V13.01,2013-05-22 08:00:00,
2013-05-22 05:00:00,70.4,67.7,24.02,WNW,292,0.0,0.0,91,0.00,,,0.00,VWS V13.01,2013-05-22 09:00:00,
2013-05-22 06:00:00,69.9,67.5,24.02,WNW,292,0.0,0.0,92,0.00,,,0.00,VWS V13.01,2013-05-22 10:00:00,
2013-05-22 07:00:00,69.3,65.3,24.02,East,90,1.0,8.0,87,0.00,,,0.00,VWS V13.01,2013-05-22 11:00:00,
2013-05-22 08:00:00,65.1,61.1,24.02,ESE,112,0.0,8.0,87,0.00,,,0.00,VWS V13.01,2013-05-22 12:00:00,
2013-05-22 09:00:00,63.7,61.3,24.02,ENE,68,1.0,8.0,92,0.00,,,0.00,VWS V13.01,2013-05-22 13:00:00,
2013-05-22 10:00:00,61.6,59.6,24.02,ENE,68,1.0,8.0,93,0.00,,,0.00,VWS V13.01,2013-05-22 14:00:00,
2013-05-22 11:00:00,61.3,59.3,24.02,ENE,68,1.0,7.0,93,0.00,,,0.00,VWS V13.01,2013-05-22 15:00:00,
2013-05-22 12:00:00,64.2,60.9,24.02,ENE,68,0.0,4.0,89,0.00,,,0.00,VWS V13.01,2013-05-22 16:00:00,
2013-05-22 13:00:00,68.5,64.2,24.02,ENE,68,0.0,4.0,86,0.00,,,0.00,VWS V13.01,2013-05-22 17:00:00,
2013-05-22 14:00:00,71.5,66.4,24.02,ENE,68,0.0,4.0,84,0.00,,,0.00,VWS V13.01,2013-05-22 18:00:00,
2013-05-22 15:00:00,73.9,68.4,24.02,ENE,68,0.0,2.0,83,0.00,,,0.00,VWS V13.01,2013-05-22 19:00:00,
2013-05-22 16:00:00,77.2,70.2,24.02,ENE,68,0.0,6.0,79,0.00,,,0.00,VWS V13.01,2013-05-22 20:00:00,
2013-05-22 17:00:00,79.0,71.6,24.02,ENE,68,0.0,7.0,78,0.00,,,0.00,VWS V13.01,2013-05-22 21:00:00,
2013-05-22 18:00:00,76.5,70.6,24.02,ENE,68,1.0,8.0,82,0.00,,,0.00,VWS V13.01,2013-05-22 22:00:00,
2013-05-22 19:00:00,75.1,69.2,24.02,ENE,68,0.0,6.0,82,0.00,,,0.00,VWS V13.01,2013-05-22 23:00:00,
2013-05-22 20:00:00,74.7,68.8,24.02,ENE,68,0.0,2.0,82,0.00,,,0.00,VWS V13.01,2013-05-23 00:00:00,
2013-05-22 21:00:00,73.5,68.4,24.02,ENE,68,0.0,0.0,84,0.00,,,0.00,VWS V13.01,2013-05-23 01:00:00,
2013-05-22 21:24:00,73.5,68.4,24.02,ENE,68,0.0,0.0,84,0.00,,,0.00,VWS V13.01,2013-05-23 01:24:00,
2013-05-22 21:29:00,72.4,67.6,24.02,ENE,62,0.0,0.0,85,0.00,,,0.00,VWS V13.01,2013-05-23 01:29:00,
2013-05-22 21:34:00,72.4,68.0,24.02,ENE,62,0.0,0.0,86,0.00,,,0.00,VWS V13.01,2013-05-23 01:34:00,
2013-05-22 21:39:00,72.3,67.9,24.02,ENE,61,0.0,0.0,86,0.00,,,0.00,VWS V13.01,2013-05-23 01:39:00,
2013-05-22 21:40:00,72.4,68.0,23.99,ENE,62,0.0,0.0,86,0.00,,,0.00,VWS V13.01,2013-05-23 01:40:00,
2013-05-22 21:44:00,72.3,67.9,23.99,ENE,62,0.0,0.0,86,0.00,,,0.00,VWS V13.01,2013-05-23 01:44:00,
2013-05-22 21:45:00,72.3,67.9,23.99,ENE,62,0.0,0.0,86,0.00,,,0.00,VWS V13.01,2013-05-23 01:45:00,
2013-05-22 21:49:00,72.3,67.9,23.99,ENE,62,0.0,0.0,86,0.00,,,0.00,VWS V13.01,2013-05-23 01:49:00,
2013-05-22 21:50:00,72.3,67.9,23.99,ENE,62,0.0,0.0,86,0.00,,,0.00,VWS V13.01,2013-05-23 01:50:00,
2013-05-22 21:54:00,72.3,68.2,23.99,ENE,61,0.0,0.0,87,0.00,,,0.00,VWS V13.01,2013-05-23 01:54:00,
2013-05-22 21:55:00,72.3,68.2,23.99,ENE,62,0.0,0.0,87,0.00,,,0.00,VWS V13.01,2013-05-23 01:55:00,
2013-05-22 21:59:00,72.2,68.1,23.99,ENE,61,0.0,0.0,87,0.00,,,0.00,VWS V13.01,2013-05-23 01:59:00,
2013-05-22 22:00:00,72.2,68.1,23.99,ENE,62,0.0,0.0,87,0.00,,,0.00,VWS V13.01,2013-05-23 02:00:00,
2013-05-22 22:01:00,72.2,68.1,23.99,ENE,62,0.0,0.0,87,0.00,,,0.00,VWS V13.01,2013-05-23 02:01:00,
2013-05-22 22:04:00,72.1,68.0,23.99,ENE,62,0.0,0.0,87,0.00,,,0.00,VWS V13.01,2013-05-23 02:04:00,
2013-05-22 22:05:00,72.1,68.3,23.99,ENE,62,0.0,0.0,88,0.00,,,0.00,VWS V13.01,2013-05-23 02:05:00,
2013-05-22 22:06:00,72.1,68.3,23.99,ENE,61,0.0,0.0,88,0.00,,,0.00,VWS V13.01,2013-05-23 02:06:00,
2013-05-22 22:10:00,72.1,68.3,23.99,ENE,61,0.0,0.0,88,0.00,,,0.00,VWS V13.01,2013-05-23 02:10:00,
2013-05-22 22:11:00,72.1,68.3,23.99,ENE,62,0.0,0.0,88,0.00,,,0.00,VWS V13.01,2013-05-23 02:11:00,
2013-05-22 22:15:00,72.2,68.4,23.99,ENE,62,0.0,0.0,88,0.00,,,0.00,VWS V13.01,2013-05-23 02:15:00,
2013-05-22 22:16:00,72.3,68.6,23.99,ENE,62,0.0,0.0,88,0.00,,,0.00,VWS V13.01,2013-05-23 02:16:00,
2013-05-22 22:20:00,72.5,69.1,23.99,ENE,61,0.0,0.0,89,0.00,,,0.00,VWS V13.01,2013-05-23 02:20:00,
2013-05-22 22:21:00,72.5,69.4,23.99,ENE,62,0.0,0.0,90,0.00,,,0.00,VWS V13.01,2013-05-23 02:21:00,
2013-05-22 22:25:00,72.8,69.7,24.02,ENE,62,0.0,0.0,90,0.00,,,0.00,VWS V13.01,2013-05-23 02:25:00,
2013-05-22 22:26:00,72.8,69.7,24.02,ENE,62,0.0,0.0,90,0.00,,,0.00,VWS V13.01,2013-05-23 02:26:00,
2013-05-22 22:30:00,73.1,70.0,24.02,ENE,62,0.0,1.0,90,0.00,,,0.00,VWS V13.01,2013-05-23 02:30:00,
2013-05-22 22:31:00,73.1,70.0,24.02,ENE,61,0.0,1.0,90,0.00,,,0.00,VWS V13.01,2013-05-23 02:31:00,
2013-05-22 22:35:00,73.5,70.4,24.02,ENE,62,0.0,1.0,90,0.00,,,0.00,VWS V13.01,2013-05-23 02:35:00,
2013-05-22 22:36:00,73.5,70.4,24.03,ENE,62,0.0,1.0,90,0.00,,,0.00,VWS V13.01,2013-05-23 02:36:00,
2013-05-22 22:37:00,73.6,70.5,24.03,ENE,61,0.0,1.0,90,0.00,,,0.00,VWS V13.01,2013-05-23 02:37:00,
2013-05-22 22:40:00,73.8,70.4,24.03,ENE,61,0.0,1.0,89,0.00,,,0.00,VWS V13.01,2013-05-23 02:40:00,
2013-05-22 22:41:00,73.8,70.4,24.03,ENE,61,0.0,1.0,89,0.00,,,0.00,VWS V13.01,2013-05-23 02:41:00,
2013-05-22 22:42:00,73.9,70.5,24.03,ENE,62,0.0,1.0,89,0.00,,,0.00,VWS V13.01,2013-05-23 02:42:00,
2013-05-22 22:45:00,74.2,70.8,24.03,ENE,62,0.0,2.0,89,0.00,,,0.00,VWS V13.01,2013-05-23 02:45:00,
2013-05-22 22:46:00,74.2,70.8,24.03,ENE,62,0.0,2.0,89,0.00,,,0.00,VWS V13.01,2013-05-23 02:46:00,
2013-05-22 22:47:00,74.3,70.8,24.03,ENE,62,0.0,2.0,89,0.00,,,0.00,VWS V13.01,2013-05-23 02:47:00,
2013-05-22 22:50:00,74.6,70.8,24.03,West,276,0.0,3.0,88,0.00,,,0.00,VWS V13.01,2013-05-23 02:50:00,
2013-05-22 22:51:00,74.6,70.8,24.03,West,277,0.0,3.0,88,0.00,,,0.00,VWS V13.01,2013-05-23 02:51:00,
2013-05-22 22:52:00,74.7,70.9,24.03,West,277,0.0,3.0,88,0.00,,,0.00,VWS V13.01,2013-05-23 02:52:00,
2013-05-22 22:55:00,74.8,71.0,24.03,West,276,0.0,3.0,88,0.00,,,0.00,VWS V13.01,2013-05-23 02:55:00,
2013-05-22 22:56:00,74.8,71.0,24.03,West,277,1.0,4.0,88,0.00,,,0.00,VWS V13.01,2013-05-23 02:56:00,
2013-05-22 22:57:00,74.9,71.1,24.03,West,277,0.0,4.0,88,0.00,,,0.00,VWS V13.01,2013-05-23 02:57:00,
2013-05-22 23:01:00,75.0,70.9,24.03,NW,304,0.0,4.0,87,0.00,,,0.00,VWS V13.01,2013-05-23 03:01:00,
2013-05-22 23:02:00,75.0,70.9,24.03,NW,304,0.0,4.0,87,0.00,,,0.00,VWS V13.01,2013-05-23 03:02:00,
2013-05-22 23:06:00,75.1,71.0,24.03,NW,305,0.0,1.0,87,0.00,,,0.00,VWS V13.01,2013-05-23 03:06:00,
2013-05-22 23:07:00,75.2,71.1,24.03,NW,305,0.0,2.0,87,0.00,,,0.00,VWS V13.01,2013-05-23 03:07:00,
2013-05-22 23:08:00,75.2,71.1,24.03,NW,305,1.0,4.0,87,0.00,,,0.00,VWS V13.01,2013-05-23 03:08:00,
2013-05-22 23:11:00,75.3,70.8,24.03,WSW,244,0.0,4.0,86,0.00,,,0.00,VWS V13.01,2013-05-23 03:11:00,
2013-05-22 23:12:00,75.3,70.8,24.03,WSW,244,0.0,4.0,86,0.00,,,0.00,VWS V13.01,2013-05-23 03:12:00,
2013-05-22 23:13:00,75.3,70.8,24.03,WSW,244,0.0,4.0,86,0.00,,,0.00,VWS V13.01,2013-05-23 03:13:00,
2013-05-22 23:16:00,75.4,70.9,24.03,WSW,244,1.0,5.0,86,0.00,,,0.00,VWS V13.01,2013-05-23 03:16:00,
2013-05-22 23:17:00,75.4,70.9,24.03,WSW,244,0.0,5.0,86,0.00,,,0.00,VWS V13.01,2013-05-23 03:17:00,
2013-05-22 23:18:00,75.4,70.9,24.03,WSW,244,0.0,5.0,86,0.00,,,0.00,VWS V13.01,2013-05-23 03:18:00,
2013-05-22 23:21:00,75.4,70.9,24.03,WSW,244,2.0,5.0,86,0.00,,,0.00,VWS V13.01,2013-05-23 03:21:00,
2013-05-22 23:22:00,75.4,70.9,24.03,WSW,244,0.0,5.0,86,0.00,,,0.00,VWS V13.01,2013-05-23 03:22:00,
2013-05-22 23:23:00,75.4,70.9,24.03,NW,311,3.0,5.0,86,0.00,,,0.00,VWS V13.01,2013-05-23 03:23:00,
2013-05-22 23:26:00,75.4,70.9,24.03,WNW,298,1.0,5.0,86,0.00,,,0.00,VWS V13.01,2013-05-23 03:26:00,
2013-05-22 23:27:00,75.5,71.0,24.03,WNW,298,0.0,5.0,86,0.00,,,0.00,VWS V13.01,2013-05-23 03:27:00,
2013-05-22 23:28:00,75.5,71.0,24.03,WNW,298,1.0,5.0,86,0.00,,,0.00,VWS V13.01,2013-05-23 03:28:00,
2013-05-22 23:32:00,75.4,70.9,24.03,WNW,298,0.0,5.0,86,0.00,,,0.00,VWS V13.01,2013-05-23 03:32:00,
2013-05-22 23:33:00,75.4,70.9,19.37,WNW,298,0.0,5.0,86,0.00,,,0.00,VWS V13.01,2013-05-23 03:33:00,
2013-05-22 23:37:00,75.4,70.9,19.37,WNW,298,0.0,5.0,86,0.00,,,0.00,VWS V13.01,2013-05-23 03:37:00,
2013-05-22 23:38:00,75.4,70.9,19.37,WNW,298,0.0,5.0,86,0.00,,,0.00,VWS V13.01,2013-05-23 03:38:00,
2013-05-22 23:42:00,75.3,70.8,19.37,WNW,298,0.0,5.0,86,0.00,,,0.00,VWS V13.01,2013-05-23 03:42:00,
2013-05-22 23:43:00,75.3,70.8,19.37,WNW,298,0.0,5.0,86,0.00,,,0.00,VWS V13.01,2013-05-23 03:43:00,
2013-05-22 23:47:00,75.3,70.8,19.37,WNW,298,0.0,5.0,86,0.00,,,0.00,VWS V13.01,2013-05-23 03:47:00,
2013-05-22 23:48:00,75.2,70.7,19.37,WNW,298,0.0,5.0,86,0.00,,,0.00,VWS V13.01,2013-05-23 03:48:00,
2013-05-22 23:49:00,75.2,70.7,19.37,WNW,298,0.0,5.0,86,0.00,,,0.00,VWS V13.01,2013-05-23 03:49:00,
2013-05-22 23:52:00,75.1,70.6,19.37,WNW,298,0.0,5.0,86,0.00,,,0.00,VWS V13.01,2013-05-23 03:52:00,
2013-05-22 23:53:00,75.1,70.6,19.37,WNW,298,1.0,5.0,86,0.00,,,0.00,VWS V13.01,2013-05-23 03:53:00,
2013-05-22 23:54:00,75.1,70.6,19.37,WNW,298,0.0,5.0,86,0.00,,,0.00,VWS V13.01,2013-05-23 03:54:00,
2013-05-22 23:57:00,74.9,70.8,19.37,NW,308,2.0,5.0,87,0.00,,,0.00,VWS V13.01,2013-05-23 03:57:00,
2013-05-22 23:58:00,74.9,70.8,19.37,NW,308,0.0,5.0,87,0.00,,,0.00,VWS V13.01,2013-05-23 03:58:00,
2013-05-22 23:59:00,74.8,70.7,19.37,NW,308,0.0,5.0,87,0.00,,,0.00,VWS V13.01,2013-05-23 03:59:00,